createdAt,value
2022-08-19T00:01:53.207Z,0.52
2022-08-19T00:04:24.235Z,0.77
2022-08-19T00:06:52.031Z,0.68
2022-08-19T00:09:20.463Z,0.50
2022-08-19T00:11:47.861Z,0.75
2022-08-19T00:14:16.737Z,1.00
2022-08-19T00:16:45.791Z,1.15
2022-08-19T00:19:13.584Z,1.05
2022-08-19T00:21:41.000Z,1.60
2022-08-19T00:24:13.384Z,1.00
2022-08-19T00:26:41.205Z,1.30
2022-08-19T00:29:09.442Z,0.90
2022-08-19T00:31:36.988Z,1.02
2022-08-19T00:34:04.363Z,1.00
2022-08-19T00:36:32.898Z,0.80
2022-08-19T00:39:00.780Z,1.27
2022-08-19T00:41:28.203Z,1.50
2022-08-19T00:44:29.197Z,1.42
2022-08-19T00:46:59.992Z,0.88
2022-08-19T00:49:39.112Z,1.20
2022-08-19T00:52:10.644Z,0.98
2022-08-19T00:54:40.088Z,1.10
2022-08-19T00:57:10.185Z,0.85
2022-08-19T00:59:56.104Z,0.93
2022-08-19T01:02:29.494Z,1.10
2022-08-19T01:04:57.180Z,1.30
2022-08-19T01:07:24.382Z,1.27
2022-08-19T01:09:51.561Z,1.30
2022-08-19T01:12:19.227Z,1.15
2022-08-19T01:14:48.680Z,1.02
2022-08-19T01:17:17.163Z,1.13
2022-08-19T01:19:46.431Z,1.27
2022-08-19T01:22:28.809Z,1.50
2022-08-19T01:24:59.384Z,1.10
2022-08-19T01:27:26.622Z,0.80
2022-08-19T01:29:56.628Z,1.50
2022-08-19T01:32:33.850Z,1.25
2022-08-19T01:35:03.159Z,1.10
2022-08-19T01:37:31.562Z,1.40
2022-08-19T01:39:58.812Z,1.40
2022-08-19T01:42:30.051Z,1.50
2022-08-19T01:44:58.266Z,1.20
2022-08-19T01:47:25.398Z,1.67
2022-08-19T01:49:52.337Z,0.90
2022-08-19T01:52:19.270Z,1.77
2022-08-19T01:54:46.191Z,1.70
2022-08-19T01:57:15.026Z,1.02
2022-08-19T01:59:43.485Z,1.30
2022-08-19T02:02:10.433Z,1.63
2022-08-19T02:04:39.113Z,2.78
2022-08-19T02:07:08.783Z,2.38
2022-08-19T02:09:36.252Z,1.63
2022-08-19T02:12:03.673Z,1.75
2022-08-19T02:14:30.567Z,1.70
2022-08-19T02:16:57.471Z,2.42
2022-08-19T02:19:24.392Z,1.38
2022-08-19T02:21:51.408Z,1.77
2022-08-19T02:24:18.323Z,1.63
2022-08-19T02:26:45.278Z,1.27
2022-08-19T02:29:12.292Z,1.90
2022-08-19T02:31:39.318Z,1.58
2022-08-19T02:34:06.310Z,1.63
2022-08-19T02:36:33.402Z,2.33
2022-08-19T02:39:00.384Z,1.50
2022-08-19T02:41:31.955Z,1.50
2022-08-19T02:44:26.293Z,1.55
2022-08-19T02:46:52.385Z,2.13
2022-08-19T02:49:19.793Z,2.08
2022-08-19T02:51:47.197Z,1.60
2022-08-19T02:54:15.482Z,1.40
2022-08-19T02:56:44.159Z,0.88
2022-08-19T02:59:12.954Z,0.77
2022-08-19T03:01:42.559Z,1.42
2022-08-19T03:04:12.656Z,1.00
2022-08-19T03:06:41.761Z,1.38
2022-08-19T03:09:09.294Z,2.42
2022-08-19T03:11:36.383Z,2.78
2022-08-19T03:14:06.396Z,2.42
2022-08-19T03:16:36.065Z,1.48
2022-08-19T03:19:03.934Z,1.60
2022-08-19T03:21:33.546Z,1.55
2022-08-19T03:24:04.380Z,2.15
2022-08-19T03:26:31.356Z,1.30
2022-08-19T03:28:59.182Z,1.10
2022-08-19T03:31:44.191Z,1.83
2022-08-19T03:34:19.558Z,1.60
2022-08-19T03:36:47.451Z,1.73
2022-08-19T03:39:15.133Z,1.83
2022-08-19T03:41:46.069Z,1.50
2022-08-19T03:44:21.663Z,1.60
2022-08-19T03:46:51.697Z,1.38
2022-08-19T03:49:19.954Z,1.00
2022-08-19T03:51:49.247Z,0.93
2022-08-19T03:54:19.332Z,0.93
2022-08-19T03:56:48.385Z,1.10
2022-08-19T03:59:18.627Z,1.27
2022-08-19T04:01:45.599Z,1.35
2022-08-19T04:04:12.996Z,1.85
2022-08-19T04:06:40.753Z,1.50
2022-08-19T04:09:10.544Z,1.23
2022-08-19T04:11:51.018Z,1.50
2022-08-19T04:14:20.667Z,1.90
2022-08-19T04:16:48.669Z,1.63
2022-08-19T04:19:17.608Z,1.80
2022-08-19T04:21:47.425Z,1.58
2022-08-19T04:24:15.659Z,1.20
2022-08-19T04:26:43.002Z,1.63
2022-08-19T04:29:14.750Z,1.20
2022-08-19T04:31:44.456Z,1.30
2022-08-19T04:34:13.512Z,0.88
2022-08-19T04:36:42.673Z,0.90
2022-08-19T04:39:14.466Z,0.90
2022-08-19T04:41:59.956Z,1.50
2022-08-19T04:44:27.021Z,1.52
2022-08-19T04:46:54.391Z,1.27
2022-08-19T04:49:23.546Z,1.40
2022-08-19T04:51:53.459Z,1.05
2022-08-19T04:54:38.240Z,1.50
2022-08-19T04:57:10.857Z,1.33
2022-08-19T04:59:39.636Z,1.05
2022-08-19T05:02:09.351Z,2.13
2022-08-19T05:04:40.186Z,1.42
2022-08-19T05:07:08.790Z,1.60
2022-08-19T05:09:55.538Z,1.10
2022-08-19T05:12:22.708Z,0.70
2022-08-19T05:14:57.884Z,0.98
2022-08-19T05:17:28.025Z,1.13
2022-08-19T05:20:15.084Z,1.25
2022-08-19T05:22:43.923Z,1.60
2022-08-19T05:25:14.727Z,0.95
2022-08-19T05:27:43.052Z,1.02
2022-08-19T05:30:11.671Z,1.77
2022-08-19T05:32:39.742Z,2.05
2022-08-19T05:35:07.225Z,1.60
2022-08-19T05:37:34.216Z,2.92
2022-08-19T05:40:01.270Z,1.50
2022-08-19T05:42:28.275Z,1.20
2022-08-19T05:44:55.210Z,2.03
2022-08-19T05:47:22.321Z,1.40
2022-08-19T05:49:51.346Z,1.20
2022-08-19T05:52:19.565Z,1.77
2022-08-19T05:54:55.817Z,1.30
2022-08-19T05:57:23.915Z,1.27
2022-08-19T05:59:53.029Z,1.48
2022-08-19T06:02:26.067Z,1.23
2022-08-19T06:04:53.200Z,0.90
2022-08-19T06:07:20.586Z,1.88
2022-08-19T06:09:59.916Z,1.50
2022-08-19T06:12:32.761Z,1.55
2022-08-19T06:15:01.985Z,1.55
2022-08-19T06:17:31.729Z,1.33
2022-08-19T06:20:00.150Z,1.10
2022-08-19T06:22:33.822Z,1.65
2022-08-19T06:25:00.706Z,1.45
2022-08-19T06:27:27.690Z,1.98
2022-08-19T06:29:55.132Z,1.85
2022-08-19T06:32:22.258Z,1.92
2022-08-19T06:34:49.254Z,1.40
2022-08-19T06:37:16.422Z,1.80
2022-08-19T06:39:45.256Z,1.80
2022-08-19T06:42:14.441Z,2.08
2022-08-19T06:44:48.156Z,2.08
2022-08-19T06:47:23.606Z,1.50
2022-08-19T06:50:03.785Z,1.30
2022-08-19T06:52:36.484Z,1.33
2022-08-19T06:55:06.309Z,1.20
2022-08-19T06:57:34.683Z,0.93
2022-08-19T07:00:02.232Z,0.90
2022-08-19T07:02:29.309Z,1.55
2022-08-19T07:04:59.228Z,1.20
2022-08-19T07:07:26.975Z,1.58
2022-08-19T07:09:59.026Z,2.00
2022-08-19T07:12:35.861Z,1.75
2022-08-19T07:15:07.105Z,1.25
2022-08-19T07:17:35.721Z,1.45
2022-08-19T07:20:06.997Z,1.30
2022-08-19T07:22:39.589Z,1.15
2022-08-19T07:25:09.590Z,1.27
2022-08-19T07:27:36.704Z,0.70
2022-08-19T07:30:04.449Z,1.05
2022-08-19T07:32:32.610Z,0.93
2022-08-19T07:35:01.699Z,1.08
2022-08-19T07:37:33.163Z,0.95
2022-08-19T07:40:01.845Z,1.48
2022-08-19T07:42:30.824Z,1.10
2022-08-19T07:44:59.499Z,1.38
2022-08-19T07:47:49.743Z,0.90
2022-08-19T07:50:14.358Z,1.58
2022-08-19T07:52:41.452Z,1.15
2022-08-19T07:55:13.583Z,1.13
2022-08-19T07:57:58.222Z,0.95
2022-08-19T08:00:25.805Z,1.38
2022-08-19T08:02:55.264Z,1.20
2022-08-19T08:05:44.058Z,1.13
2022-08-19T08:08:30.686Z,1.00
2022-08-19T08:10:57.712Z,0.98
2022-08-19T08:13:25.742Z,1.00
2022-08-19T08:15:54.775Z,1.10
2022-08-19T08:18:27.542Z,1.17
2022-08-19T08:20:58.040Z,1.15
2022-08-19T08:23:29.610Z,1.13
2022-08-19T08:25:59.142Z,1.00
2022-08-19T08:28:29.409Z,1.15
2022-08-19T08:30:58.263Z,1.05
2022-08-19T08:33:34.413Z,1.35
2022-08-19T08:36:09.569Z,1.10
2022-08-19T08:38:41.549Z,1.20
2022-08-19T08:41:42.859Z,1.23
2022-08-19T08:44:22.979Z,1.00
2022-08-19T08:46:59.145Z,0.77
2022-08-19T08:50:00.720Z,0.98
2022-08-19T08:52:39.531Z,1.30
2022-08-19T08:55:14.836Z,1.00
2022-08-19T08:57:55.915Z,1.25
2022-08-19T09:00:32.426Z,0.98
2022-08-19T09:03:02.414Z,1.00
2022-08-19T09:05:49.588Z,0.95
2022-08-19T09:08:35.673Z,1.30
2022-08-19T09:11:08.480Z,1.40
2022-08-19T09:13:54.925Z,2.08
2022-08-19T09:16:28.275Z,0.70
2022-08-19T09:19:08.142Z,1.00
2022-08-19T09:21:39.576Z,1.10
2022-08-19T09:24:07.628Z,1.08
2022-08-19T09:26:48.556Z,0.95
2022-08-19T09:29:22.526Z,1.02
2022-08-19T09:31:51.105Z,1.00
2022-08-19T09:34:21.294Z,0.75
2022-08-19T09:36:54.097Z,1.10
2022-08-19T09:39:21.993Z,0.90
2022-08-19T09:41:50.905Z,1.20
2022-08-19T09:44:18.895Z,0.90
2022-08-19T09:46:48.275Z,0.75
2022-08-19T09:49:18.461Z,0.80
2022-08-19T09:51:50.821Z,0.82
2022-08-19T09:54:23.512Z,1.10
2022-08-19T09:56:53.033Z,0.68
2022-08-19T09:59:19.968Z,0.95
2022-08-19T10:01:47.046Z,0.80
2022-08-19T10:04:20.551Z,1.00
2022-08-19T10:06:53.529Z,0.85
2022-08-19T10:09:26.138Z,0.80
2022-08-19T10:12:02.648Z,0.90
2022-08-19T10:14:29.888Z,0.70
2022-08-19T10:16:57.593Z,0.70
2022-08-19T10:19:26.828Z,0.90
2022-08-19T10:21:55.565Z,0.60
2022-08-19T10:24:25.373Z,0.80
2022-08-19T10:26:57.221Z,0.93
2022-08-19T10:29:32.748Z,0.88
2022-08-19T10:32:09.486Z,0.73
2022-08-19T10:34:48.909Z,0.70
2022-08-19T10:37:28.902Z,0.77
2022-08-19T10:39:58.870Z,0.70
2022-08-19T10:42:25.896Z,0.93
2022-08-19T10:44:52.838Z,1.00
2022-08-19T10:47:25.370Z,0.93
2022-08-19T10:50:13.388Z,1.45
2022-08-19T10:52:49.848Z,0.95
2022-08-19T10:55:38.827Z,1.00
2022-08-19T10:58:11.178Z,0.65
2022-08-19T11:00:38.274Z,0.68
2022-08-19T11:03:05.404Z,0.55
2022-08-19T11:05:39.935Z,0.65
2022-08-19T11:08:22.976Z,0.90
2022-08-19T11:10:51.658Z,0.70
2022-08-19T11:13:18.535Z,0.88
2022-08-19T11:15:46.894Z,0.77
2022-08-19T11:18:13.994Z,0.90
2022-08-19T11:20:40.893Z,0.93
2022-08-19T11:23:08.114Z,0.75
2022-08-19T11:25:36.295Z,0.80
2022-08-19T11:28:03.322Z,0.80
2022-08-19T11:30:30.597Z,0.80
2022-08-19T11:32:57.920Z,0.98
2022-08-19T11:35:25.348Z,0.70
2022-08-19T11:37:52.700Z,0.80
2022-08-19T11:40:19.794Z,0.75
2022-08-19T11:42:56.605Z,0.70
2022-08-19T11:45:29.064Z,0.60
2022-08-19T11:47:57.033Z,0.50
2022-08-19T11:50:24.700Z,0.70
2022-08-19T11:52:55.074Z,0.70
2022-08-19T11:55:22.010Z,0.70
2022-08-19T11:57:48.971Z,0.50
2022-08-19T12:00:16.404Z,0.50
2022-08-19T12:02:43.581Z,0.57
2022-08-19T12:05:12.985Z,0.70
2022-08-19T12:07:41.982Z,0.43
2022-08-19T12:10:09.541Z,1.17
2022-08-19T12:12:41.467Z,0.90
2022-08-19T12:15:09.187Z,0.85
2022-08-19T12:17:36.069Z,1.20
2022-08-19T12:20:03.937Z,0.70
2022-08-19T12:22:30.916Z,0.93
2022-08-19T12:24:57.832Z,0.80
2022-08-19T12:27:40.357Z,1.00
2022-08-19T12:30:12.030Z,0.80
2022-08-19T12:32:39.499Z,1.13
2022-08-19T12:35:08.172Z,0.90
2022-08-19T12:37:35.631Z,0.95
2022-08-19T12:40:04.200Z,0.93
2022-08-19T12:42:31.558Z,0.75
2022-08-19T12:44:58.917Z,1.30
2022-08-19T12:47:27.432Z,0.70
2022-08-19T12:49:55.974Z,0.80
2022-08-19T12:52:28.330Z,1.08
2022-08-19T12:54:57.500Z,0.70
2022-08-19T12:57:33.249Z,0.98
2022-08-19T13:00:09.222Z,1.05
2022-08-19T13:05:09.337Z,1.10
2022-08-19T13:07:36.985Z,1.02
2022-08-19T13:10:04.615Z,0.90
2022-08-19T13:12:31.552Z,1.00
2022-08-19T13:14:58.462Z,0.85
2022-08-19T13:17:25.641Z,1.10
2022-08-19T13:19:53.019Z,0.70
2022-08-19T13:22:19.965Z,0.80
2022-08-19T13:24:47.538Z,1.17
2022-08-19T13:27:15.097Z,1.13
2022-08-19T13:30:01.446Z,1.20
2022-08-19T13:32:48.120Z,1.02
2022-08-19T13:35:17.257Z,1.13
2022-08-19T13:37:45.173Z,0.75
2022-08-19T13:40:19.519Z,0.80
2022-08-19T13:42:48.421Z,1.08
2022-08-19T13:45:19.054Z,0.85
2022-08-19T13:47:53.704Z,0.85
2022-08-19T13:50:28.751Z,1.00
2022-08-19T13:52:57.454Z,0.88
2022-08-19T13:55:25.588Z,0.70
2022-08-19T13:57:54.328Z,0.60
2022-08-19T14:00:23.448Z,0.93
2022-08-19T14:02:53.437Z,1.00
2022-08-19T14:05:21.821Z,0.93
2022-08-19T14:07:49.514Z,0.80
2022-08-19T14:10:17.557Z,0.93
2022-08-19T14:12:44.586Z,1.10
2022-08-19T14:15:13.050Z,1.20
2022-08-19T14:17:41.465Z,1.10
2022-08-19T14:20:11.357Z,0.80
2022-08-19T14:22:47.019Z,1.33
2022-08-19T14:25:17.660Z,1.17
2022-08-19T14:27:45.488Z,0.85
2022-08-19T14:30:16.485Z,1.10
2022-08-19T14:32:44.470Z,0.95
2022-08-19T14:35:13.620Z,0.90
2022-08-19T14:37:45.492Z,0.90
2022-08-19T14:40:26.933Z,0.82
2022-08-19T14:43:00.245Z,0.80
2022-08-19T14:45:29.225Z,0.80
2022-08-19T14:47:56.519Z,1.10
2022-08-19T14:50:23.816Z,1.08
2022-08-19T14:52:52.809Z,0.82
2022-08-19T14:55:19.825Z,0.82
2022-08-19T14:57:46.865Z,0.93
2022-08-19T15:00:14.613Z,0.60
2022-08-19T15:02:47.809Z,0.60
2022-08-19T15:05:14.864Z,0.73
2022-08-19T15:07:42.122Z,0.50
2022-08-19T15:10:10.971Z,0.80
2022-08-19T15:12:41.180Z,0.98
2022-08-19T15:15:10.116Z,0.90
2022-08-19T15:17:54.490Z,0.80
2022-08-19T15:20:25.233Z,0.70
2022-08-19T15:22:52.317Z,0.80
2022-08-19T15:25:19.993Z,0.80
2022-08-19T15:27:47.402Z,0.60
2022-08-19T15:30:22.072Z,0.93
2022-08-19T15:32:49.828Z,0.80
2022-08-19T15:35:19.410Z,0.63
2022-08-19T15:37:49.801Z,0.70
2022-08-19T15:40:17.515Z,1.30
2022-08-19T15:42:44.773Z,1.10
2022-08-19T15:45:14.591Z,0.70
2022-08-19T15:47:42.205Z,0.70
2022-08-19T15:50:12.328Z,0.80
2022-08-19T15:52:49.685Z,0.65
2022-08-19T15:55:21.313Z,0.80
2022-08-19T15:58:28.987Z,0.70
2022-08-19T16:01:20.417Z,0.82
2022-08-19T16:04:14.127Z,1.00
2022-08-19T16:06:47.807Z,0.73
2022-08-19T16:09:16.134Z,0.70
2022-08-19T16:11:45.852Z,1.15
2022-08-19T16:14:15.170Z,0.60
2022-08-19T16:16:47.056Z,0.90
2022-08-19T16:19:16.749Z,0.60
2022-08-19T16:21:49.120Z,0.80
2022-08-19T16:24:18.957Z,0.77
2022-08-19T16:26:47.118Z,0.60
2022-08-19T16:29:27.692Z,0.88
2022-08-19T16:32:06.077Z,1.00
2022-08-19T16:34:33.795Z,0.90
2022-08-19T16:37:01.675Z,0.60
2022-08-19T16:39:28.699Z,0.65
2022-08-19T16:41:55.734Z,0.60
2022-08-19T16:44:22.687Z,0.55
2022-08-19T16:46:58.527Z,0.70
2022-08-19T16:49:53.158Z,0.80
2022-08-19T16:52:18.283Z,0.80
2022-08-19T16:54:45.369Z,0.70
2022-08-19T16:57:13.070Z,0.70
2022-08-19T16:59:44.177Z,0.90
2022-08-19T17:02:18.357Z,0.77
2022-08-19T17:04:57.141Z,0.50
2022-08-19T17:07:27.933Z,0.65
2022-08-19T17:09:55.909Z,0.73
2022-08-19T17:12:30.771Z,0.73
2022-08-19T17:15:00.785Z,0.75
2022-08-19T17:17:29.420Z,1.10
2022-08-19T17:19:59.082Z,0.60
2022-08-19T17:22:26.865Z,0.93
2022-08-19T17:24:56.058Z,0.50
2022-08-19T17:27:23.299Z,0.98
2022-08-19T17:29:50.266Z,1.00
2022-08-19T17:32:17.198Z,0.70
2022-08-19T17:34:54.250Z,0.77
2022-08-19T17:37:21.457Z,0.95
2022-08-19T17:39:48.752Z,0.95
2022-08-19T17:42:15.819Z,0.90
2022-08-19T17:44:42.806Z,0.75
2022-08-19T17:47:13.898Z,1.20
2022-08-19T17:49:41.299Z,0.60
2022-08-19T17:52:10.070Z,0.80
2022-08-19T17:54:37.446Z,0.80
2022-08-19T17:57:04.580Z,0.80
2022-08-19T17:59:31.540Z,0.60
2022-08-19T18:02:00.006Z,0.82
2022-08-19T18:04:27.598Z,0.82
2022-08-19T18:06:55.610Z,0.52
2022-08-19T18:09:41.516Z,0.80
2022-08-19T18:12:12.235Z,0.70
2022-08-19T18:14:39.980Z,0.60
2022-08-19T18:17:10.318Z,0.95
2022-08-19T18:19:41.030Z,1.15
2022-08-19T18:22:11.122Z,0.77
2022-08-19T18:24:40.702Z,0.60
2022-08-19T18:27:07.669Z,0.43
2022-08-19T18:29:38.402Z,0.80
2022-08-19T18:32:07.017Z,0.73
2022-08-19T18:34:36.699Z,0.60
2022-08-19T18:37:03.672Z,0.70
2022-08-19T18:39:49.666Z,0.80
2022-08-19T18:42:36.923Z,0.52
2022-08-19T18:45:24.055Z,0.88
2022-08-19T18:48:18.506Z,0.80
2022-08-19T18:50:59.145Z,0.82
2022-08-19T18:53:28.730Z,0.68
2022-08-19T18:55:56.109Z,0.70
2022-08-19T18:58:34.412Z,0.73
2022-08-19T19:01:11.660Z,0.80
2022-08-19T19:03:43.114Z,0.90
2022-08-19T19:06:10.226Z,0.63
2022-08-19T19:08:39.004Z,0.60
2022-08-19T19:11:06.498Z,0.95
2022-08-19T19:13:34.545Z,0.82
2022-08-19T19:16:01.602Z,0.60
2022-08-19T19:18:29.994Z,0.93
2022-08-19T19:20:57.730Z,0.60
2022-08-19T19:23:24.904Z,0.55
2022-08-19T19:25:52.510Z,0.85
2022-08-19T19:28:28.253Z,0.90
2022-08-19T19:31:00.195Z,1.00
2022-08-19T19:33:28.141Z,1.10
2022-08-19T19:35:55.219Z,0.85
2022-08-19T19:38:22.282Z,0.90
2022-08-19T19:40:49.495Z,1.15
2022-08-19T19:43:18.413Z,0.93
2022-08-19T19:45:47.163Z,1.20
2022-08-19T19:48:16.309Z,0.90
2022-08-19T19:50:44.871Z,1.05
2022-08-19T19:53:13.209Z,0.70
2022-08-19T19:55:41.183Z,1.80
2022-08-19T19:58:08.942Z,0.90
2022-08-19T20:00:36.379Z,1.40
2022-08-19T20:03:03.581Z,1.45
2022-08-19T20:05:30.631Z,1.05
2022-08-19T20:08:16.477Z,1.40
2022-08-19T20:10:45.926Z,1.70
2022-08-19T20:13:15.800Z,0.90
2022-08-19T20:15:45.850Z,0.88
2022-08-19T20:18:15.945Z,1.05
2022-08-19T20:20:43.880Z,0.80
2022-08-19T20:23:11.178Z,0.85
2022-08-19T20:25:39.068Z,1.08
2022-08-19T20:28:06.070Z,1.52
2022-08-19T20:30:34.032Z,1.00
2022-08-19T20:33:04.738Z,1.00
2022-08-19T20:35:31.661Z,1.13
2022-08-19T20:38:03.499Z,1.15
2022-08-19T20:40:30.905Z,0.93
2022-08-19T20:42:57.873Z,1.10
2022-08-19T20:45:32.609Z,1.17
2022-08-19T20:48:05.477Z,0.73
2022-08-19T20:50:35.143Z,0.77
2022-08-19T20:53:09.005Z,1.10
2022-08-19T20:55:36.079Z,0.70
2022-08-19T20:58:03.967Z,1.20
2022-08-19T21:00:31.202Z,1.10
2022-08-19T21:02:58.190Z,0.88
2022-08-19T21:05:29.892Z,1.02
2022-08-19T21:07:57.885Z,0.85
2022-08-19T21:10:26.285Z,0.93
2022-08-19T21:12:53.645Z,0.85
2022-08-19T21:15:20.581Z,0.55
2022-08-19T21:17:48.733Z,0.63
2022-08-19T21:20:15.780Z,0.70
2022-08-19T21:22:42.783Z,0.90
2022-08-19T21:25:09.921Z,0.70
2022-08-19T21:27:37.096Z,0.80
2022-08-19T21:30:07.678Z,1.20
2022-08-19T21:32:34.890Z,0.95
2022-08-19T21:35:02.373Z,0.85
2022-08-19T21:37:29.991Z,0.80
2022-08-19T21:39:57.059Z,0.70
2022-08-19T21:42:24.305Z,1.00
2022-08-19T21:44:51.685Z,0.88
2022-08-19T21:47:18.806Z,0.70
2022-08-19T21:49:46.157Z,0.57
2022-08-19T21:52:13.470Z,0.70
2022-08-19T21:54:40.410Z,0.68
2022-08-19T21:57:10.801Z,0.75
2022-08-19T21:59:43.597Z,0.43
2022-08-19T22:02:20.984Z,0.50
2022-08-19T22:04:50.070Z,1.00
2022-08-19T22:07:17.871Z,0.60
2022-08-19T22:09:46.631Z,0.60
2022-08-19T22:12:24.161Z,0.70
2022-08-19T22:14:52.383Z,1.00
2022-08-19T22:17:19.849Z,0.80
2022-08-19T22:19:47.119Z,0.70
2022-08-19T22:22:24.244Z,0.63
2022-08-19T22:24:52.753Z,0.80
2022-08-19T22:27:20.209Z,0.93
2022-08-19T22:29:47.452Z,0.70
2022-08-19T22:32:28.086Z,1.15
2022-08-19T22:34:58.738Z,1.00
2022-08-19T22:37:27.777Z,0.80
2022-08-19T22:39:55.307Z,0.70
2022-08-19T22:42:22.788Z,0.60
2022-08-19T22:44:49.837Z,0.50
2022-08-19T22:47:17.073Z,0.52
2022-08-19T22:49:45.327Z,0.60
2022-08-19T22:52:17.734Z,0.60
2022-08-19T22:54:47.000Z,0.70
2022-08-19T22:57:14.755Z,0.30
2022-08-19T22:59:42.066Z,0.32
2022-08-19T23:02:09.838Z,0.35
2022-08-19T23:04:36.881Z,0.70
2022-08-19T23:07:05.463Z,0.50
2022-08-19T23:09:32.402Z,0.60
2022-08-19T23:12:00.687Z,0.52
2022-08-19T23:14:28.265Z,0.47
2022-08-19T23:16:58.883Z,0.40
2022-08-19T23:19:26.284Z,0.57
2022-08-19T23:21:53.460Z,0.50
2022-08-19T23:24:20.514Z,0.80
2022-08-19T23:27:05.870Z,0.40
2022-08-19T23:29:51.616Z,0.90
2022-08-19T23:32:20.312Z,0.37
2022-08-19T23:34:47.566Z,0.98
2022-08-19T23:37:14.938Z,0.30
2022-08-19T23:39:41.967Z,0.47
2022-08-19T23:42:13.887Z,0.60
2022-08-19T23:44:51.089Z,0.35
2022-08-19T23:47:19.633Z,0.50
2022-08-19T23:49:47.539Z,0.60
2022-08-19T23:52:14.509Z,0.50
2022-08-19T23:54:43.635Z,0.60
2022-08-19T23:57:13.738Z,0.55
2022-08-19T23:59:43.037Z,0.50
